Time;durP1;ratioP1;P1;durP2;ratioP2;P2;SDS_P1;SDS_P2;PMS_P1;PMS_P2;Temp;Humidity;BMP_temperature;BMP_pressure;BME280_temperature;BME280_humidity;BME280_pressure;Samples;Min_cycle;Max_cycle;Signal;HPM_P1;HPM_P2
2023/09/01 00:00:48;;;;;;;6.50;4.07;;;;;;;17.27;100.00;97972.66;4118463;28;21212;-85
2023/09/01 00:03:16;;;;;;;7.57;4.50;;;;;;;17.26;100.00;97974.47;4114124;28;20640;-85
2023/09/01 00:05:20;;;;;;;6.60;4.47;;;;;;;17.27;100.00;97970.03;4119540;28;20655;-85
2023/09/01 00:07:23;;;;;;;6.80;4.07;;;;;;;17.28;100.00;97969.88;4115233;28;20654;-85
2023/09/01 00:09:26;;;;;;;6.53;4.60;;;;;;;17.28;100.00;97963.78;4115390;28;20647;-85
2023/09/01 00:11:29;;;;;;;6.70;4.20;;;;;;;17.29;100.00;97950.47;4113869;28;20644;-85
2023/09/01 00:13:31;;;;;;;5.40;3.97;;;;;;;17.28;100.00;97955.88;4119407;28;20642;-85
2023/09/01 00:15:36;;;;;;;6.50;3.90;;;;;;;17.26;100.00;97944.63;4102369;28;20632;-85
2023/09/01 00:17:39;;;;;;;5.63;3.90;;;;;;;17.25;100.00;97943.81;4117226;28;20635;-85
2023/09/01 00:19:43;;;;;;;4.97;4.07;;;;;;;17.26;100.00;97944.63;4116661;28;20766;-85
2023/09/01 00:21:46;;;;;;;5.73;3.80;;;;;;;17.27;100.00;97948.94;4112980;28;20770;-85
2023/09/01 00:23:49;;;;;;;5.37;3.50;;;;;;;17.26;100.00;97948.13;4118646;28;20636;-85
2023/09/01 00:25:52;;;;;;;9.00;4.23;;;;;;;17.29;100.00;97946.97;4121900;28;20657;-85
2023/09/01 00:27:55;;;;;;;6.33;3.90;;;;;;;17.29;100.00;97939.91;4118685;28;20686;-84
2023/09/01 00:29:58;;;;;;;6.20;3.80;;;;;;;17.32;100.00;97944.03;4117806;28;20679;-85
2023/09/01 00:32:03;;;;;;;4.97;3.80;;;;;;;17.35;100.00;97954.28;4103901;28;20640;-85
2023/09/01 00:34:07;;;;;;;6.10;3.87;;;;;;;17.35;100.00;97954.28;4122479;28;20619;-85
2023/09/01 00:36:10;;;;;;;6.03;4.13;;;;;;;17.37;100.00;97968.16;4112765;28;21269;-85
2023/09/01 00:38:12;;;;;;;5.80;4.50;;;;;;;17.38;100.00;97972.44;4116027;28;21263;-85
2023/09/01 00:40:16;;;;;;;5.33;4.43;;;;;;;17.37;100.00;97981.34;4122459;28;20647;-85
2023/09/01 00:42:19;;;;;;;7.73;4.53;;;;;;;17.34;100.00;97979.84;4118521;28;21306;-85
2023/09/01 00:44:22;;;;;;;6.57;5.07;;;;;;;17.30;100.00;97983.72;4123898;28;20665;-85
2023/09/01 00:46:26;;;;;;;8.60;5.27;;;;;;;17.26;100.00;97971.00;4122752;28;20644;-85
2023/09/01 00:48:30;;;;;;;8.47;5.07;;;;;;;17.27;100.00;97962.94;4116346;28;20641;-85
2023/09/01 00:50:34;;;;;;;8.20;4.73;;;;;;;17.27;100.00;97951.56;4123956;28;20634;-85
2023/09/01 00:52:37;;;;;;;7.40;4.50;;;;;;;17.27;100.00;97951.56;4105183;28;20628;-85
2023/09/01 00:54:40;;;;;;;6.40;4.53;;;;;;;17.26;100.00;97949.91;4119792;28;20631;-85
2023/09/01 00:56:44;;;;;;;6.20;4.70;;;;;;;17.26;100.00;97944.63;4124786;28;20642;-85
2023/09/01 00:58:48;;;;;;;8.40;4.23;;;;;;;17.25;100.00;97940.34;4125591;28;20634;-85
2023/09/01 01:00:52;;;;;;;6.07;4.07;;;;;;;17.23;100.00;97937.88;4124217;28;20642;-85
2023/09/01 01:02:56;;;;;;;5.73;4.33;;;;;;;17.22;100.00;97933.56;4120829;28;20663;-85
2023/09/01 01:05:00;;;;;;;5.20;4.17;;;;;;;17.21;100.00;97933.72;4125341;28;21276;-85
2023/09/01 01:07:08;;;;;;;5.67;4.23;;;;;;;17.20;100.00;97927.63;4120650;28;20719;-85
2023/09/01 01:09:18;;;;;;;6.83;4.20;;;;;;;17.20;100.00;97926.75;4103557;28;21006;-85
2023/09/01 01:11:26;;;;;;;4.53;3.70;;;;;;;17.20;100.00;97924.09;4127896;28;20642;-85
2023/09/01 01:13:34;;;;;;;4.60;3.70;;;;;;;17.21;100.00;97917.91;4125960;28;20653;-85
2023/09/01 01:15:38;;;;;;;4.80;4.30;;;;;;;17.20;100.00;97918.84;4134421;28;20634;-85
2023/09/01 01:17:44;;;;;;;6.00;3.80;;;;;;;17.23;100.00;97924.69;4108134;28;20684;-85
2023/09/01 01:19:52;;;;;;;4.60;3.60;;;;;;;17.22;100.00;97923.03;4127721;28;20626;-85
2023/09/01 01:22:00;;;;;;;12.13;3.60;;;;;;;17.21;100.00;97925.81;4124862;28;20668;-85
2023/09/01 01:24:05;;;;;;;4.23;3.67;;;;;;;17.23;100.00;97929.97;4124325;28;20717;-85
2023/09/01 01:26:12;;;;;;;5.23;3.40;;;;;;;17.24;100.00;97931.59;4133593;28;21325;-85
2023/09/01 01:28:16;;;;;;;5.53;3.80;;;;;;;17.26;100.00;97928.81;4123748;28;20659;-85
2023/09/01 01:30:19;;;;;;;6.00;3.97;;;;;;;17.27;100.00;97919.94;4103301;28;20633;-85
2023/09/01 01:32:22;;;;;;;6.17;3.80;;;;;;;17.29;100.00;97928.50;4124115;28;20619;-85
2023/09/01 01:34:30;;;;;;;4.57;3.47;;;;;;;17.28;100.00;97932.16;4109593;28;20632;-85
2023/09/01 01:36:38;;;;;;;4.50;3.53;;;;;;;17.29;100.00;97929.38;4105762;28;20654;-85
2023/09/01 01:38:42;;;;;;;4.77;3.63;;;;;;;17.31;100.00;97935.31;4110522;28;20741;-85
2023/09/01 01:40:48;;;;;;;5.23;3.60;;;;;;;17.30;100.00;97938.09;4120050;28;20715;-85
2023/09/01 01:42:52;;;;;;;10.20;4.17;;;;;;;17.31;100.00;97934.50;4125794;28;20662;-85
2023/09/01 01:44:58;;;;;;;4.63;3.60;;;;;;;17.31;100.00;97937.13;4104455;28;21254;-85
2023/09/01 01:47:02;;;;;;;6.33;3.60;;;;;;;17.32;100.00;97936.13;4109652;28;20640;-85
2023/09/01 01:49:09;;;;;;;4.63;3.40;;;;;;;17.34;100.00;97934.19;4118330;28;20682;-85
2023/09/01 01:51:12;;;;;;;4.53;3.90;;;;;;;17.34;100.00;97936.81;4119405;28;20657;-85
2023/09/01 01:53:16;;;;;;;7.23;5.20;;;;;;;17.36;100.00;97929.59;4120342;28;20645;-85
2023/09/01 01:55:19;;;;;;;4.30;3.50;;;;;;;17.36;100.00;97926.94;4120894;28;20741;-85
2023/09/01 01:57:23;;;;;;;5.60;3.97;;;;;;;17.37;100.00;97931.25;4121872;28;21132;-85
2023/09/01 01:59:26;;;;;;;4.77;3.70;;;;;;;17.36;100.00;97932.22;4117941;28;20645;-85
2023/09/01 02:01:29;;;;;;;7.37;3.97;;;;;;;17.36;100.00;97937.50;4126140;28;20642;-85
2023/09/01 02:03:32;;;;;;;4.67;3.50;;;;;;;17.35;100.00;97933.19;4124021;28;21040;-85
2023/09/01 02:05:36;;;;;;;4.63;4.17;;;;;;;17.34;100.00;97934.19;4125959;28;20717;-85
2023/09/01 02:07:39;;;;;;;4.73;3.77;;;;;;;17.34;100.00;97937.66;4121005;28;20631;-84
2023/09/01 02:09:43;;;;;;;6.13;4.00;;;;;;;17.34;100.00;97937.66;4125020;28;20635;-84
2023/09/01 02:11:46;;;;;;;4.77;3.33;;;;;;;17.33;100.00;97935.97;4111369;28;20690;-85
2023/09/01 02:13:50;;;;;;;3.90;3.50;;;;;;;17.34;100.00;97931.56;4124876;28;20667;-85
2023/09/01 02:15:54;;;;;;;5.27;3.50;;;;;;;17.31;100.00;97930.03;4108841;28;20640;-85
2023/09/01 02:17:58;;;;;;;7.10;3.50;;;;;;;17.33;100.00;97925.44;4106820;28;20701;-85
2023/09/01 02:20:01;;;;;;;4.40;3.60;;;;;;;17.30;100.00;97928.38;4106746;28;20691;-85
2023/09/01 02:22:05;;;;;;;4.50;3.23;;;;;;;17.31;100.00;97921.31;4118841;28;20741;-85
2023/09/01 02:24:09;;;;;;;4.03;3.43;;;;;;;17.33;100.00;97924.59;4116382;28;20756;-89
2023/09/01 02:26:17;;;;;;;6.80;3.40;;;;;;;17.32;100.00;97926.44;4115210;28;20644;-89
2023/09/01 02:28:20;;;;;;;4.70;3.57;;;;;;;17.33;100.00;97929.88;4118865;28;20646;-90
2023/09/01 02:30:24;;;;;;;6.83;3.40;;;;;;;17.34;100.00;97926.28;4104286;28;20647;-89
2023/09/01 02:32:27;;;;;;;4.80;3.80;;;;;;;17.35;100.00;97934.03;4121679;28;20654;-89
2023/09/01 02:34:31;;;;;;;4.43;3.30;;;;;;;17.35;100.00;97933.19;4119166;28;20663;-89
2023/09/01 02:36:34;;;;;;;5.90;3.70;;;;;;;17.36;100.00;97940.13;4101358;28;20632;-89
2023/09/01 02:38:38;;;;;;;4.93;3.80;;;;;;;17.36;100.00;97945.41;4119708;28;20690;-89
2023/09/01 02:40:41;;;;;;;4.37;3.40;;;;;;;17.36;100.00;97940.13;4117494;28;20643;-90
2023/09/01 02:42:44;;;;;;;3.80;3.40;;;;;;;17.35;100.00;97947.22;4101545;28;20632;-90
2023/09/01 02:44:47;;;;;;;3.97;3.20;;;;;;;17.35;100.00;97938.47;4103569;28;20684;-90
2023/09/01 02:46:52;;;;;;;5.87;4.10;;;;;;;17.33;100.00;97935.16;4118454;28;20639;-90
2023/09/01 02:48:56;;;;;;;6.17;3.50;;;;;;;17.33;100.00;97937.78;4118804;28;20663;-90
2023/09/01 02:50:59;;;;;;;5.40;3.50;;;;;;;17.34;100.00;97944.75;4106793;28;21067;-90
2023/09/01 02:53:04;;;;;;;4.27;3.50;;;;;;;17.35;100.00;97946.38;4109390;28;20622;-90
2023/09/01 02:55:08;;;;;;;3.87;3.40;;;;;;;17.35;100.00;97949.88;4121916;28;20722;-89
2023/09/01 02:57:12;;;;;;;4.13;3.50;;;;;;;17.35;100.00;97944.59;4114468;28;20657;-90
2023/09/01 02:59:15;;;;;;;3.60;2.97;;;;;;;17.33;100.00;97949.16;4120973;28;20662;-90
2023/09/01 03:01:18;;;;;;;4.23;3.10;;;;;;;17.33;100.00;97950.97;4108401;28;20659;-89
2023/09/01 03:03:24;;;;;;;4.03;3.27;;;;;;;17.34;100.00;97947.38;4120251;28;20694;-89
2023/09/01 03:05:27;;;;;;;3.83;3.37;;;;;;;17.36;100.00;97953.31;4122758;28;20662;-90
2023/09/01 03:07:29;;;;;;;4.70;3.30;;;;;;;17.34;100.00;97950.00;4106993;28;20677;-90
2023/09/01 03:09:33;;;;;;;4.87;3.50;;;;;;;17.37;100.00;97952.34;4120827;28;20728;-88
2023/09/01 03:11:36;;;;;;;4.10;3.33;;;;;;;17.39;100.00;97939.84;4124021;28;20693;-88
2023/09/01 03:13:39;;;;;;;4.73;3.10;;;;;;;17.37;100.00;97947.06;4123901;28;20630;-90
2023/09/01 03:15:42;;;;;;;4.80;3.10;;;;;;;17.38;100.00;97944.28;4119002;28;20734;-89
2023/09/01 03:17:45;;;;;;;5.77;3.50;;;;;;;17.39;100.00;97945.09;4119129;28;20631;-89
2023/09/01 03:19:51;;;;;;;3.80;2.97;;;;;;;17.39;100.00;97955.66;4106756;28;20686;-89
2023/09/01 03:21:54;;;;;;;4.20;3.47;;;;;;;17.39;100.00;97956.47;4109228;28;20639;-88
2023/09/01 03:23:57;;;;;;;4.90;3.40;;;;;;;17.39;100.00;97955.66;4124196;28;21532;-89
2023/09/01 03:26:00;;;;;;;4.23;3.10;;;;;;;17.38;100.00;97939.00;4123785;28;20639;-89
2023/09/01 03:28:04;;;;;;;5.83;3.50;;;;;;;17.38;100.00;97944.28;4121524;28;20639;-89
2023/09/01 03:30:08;;;;;;;4.80;3.30;;;;;;;17.37;100.00;97941.81;4113734;28;21010;-89
2023/09/01 03:32:14;;;;;;;3.33;2.70;;;;;;;17.36;100.00;97940.13;4101488;28;21405;-90
2023/09/01 03:34:17;;;;;;;3.83;3.07;;;;;;;17.35;100.00;97941.94;4130367;28;20638;-84
2023/09/01 03:36:21;;;;;;;3.90;3.10;;;;;;;17.37;100.00;97945.25;4101468;28;20637;-84
2023/09/01 03:38:24;;;;;;;4.13;3.10;;;;;;;17.39;100.00;97948.56;4115342;28;20666;-84
2023/09/01 03:40:27;;;;;;;5.40;2.97;;;;;;;17.42;100.00;97944.81;4123895;28;21017;-84
2023/09/01 03:42:31;;;;;;;4.80;3.33;;;;;;;17.45;100.00;97947.16;4106997;28;20676;-85
2023/09/01 03:44:35;;;;;;;4.10;2.80;;;;;;;17.47;100.00;97953.94;4118643;28;20725;-85
2023/09/01 03:46:38;;;;;;;3.37;2.90;;;;;;;17.47;100.00;97944.22;4113465;28;21158;-85
2023/09/01 03:48:41;;;;;;;5.03;3.43;;;;;;;17.48;100.00;97956.44;4116384;28;21226;-85
2023/09/01 03:50:44;;;;;;;3.40;3.07;;;;;;;17.49;100.00;97958.06;4108574;28;21058;-85
2023/09/01 03:52:49;;;;;;;5.40;3.10;;;;;;;17.50;100.00;97949.19;4120185;28;21079;-85
2023/09/01 03:54:52;;;;;;;4.00;3.10;;;;;;;17.53;100.00;97953.34;4106811;28;21241;-85
2023/09/01 03:56:55;;;;;;;4.13;3.17;;;;;;;17.54;100.00;97950.53;4120976;28;20651;-85
2023/09/01 03:58:58;;;;;;;4.63;3.13;;;;;;;17.54;100.00;97955.78;4122050;28;21096;-85
2023/09/01 04:01:01;;;;;;;3.50;2.97;;;;;;;17.57;100.00;97947.56;4102005;28;20643;-84
2023/09/01 04:03:04;;;;;;;3.97;3.00;;;;;;;17.58;100.00;97951.88;4101878;28;20636;-84
2023/09/01 04:05:08;;;;;;;4.77;2.80;;;;;;;17.59;100.00;97952.69;4117609;28;20679;-85
2023/09/01 04:07:11;;;;;;;3.87;3.00;;;;;;;17.58;100.00;97951.88;4119276;28;20628;-85
2023/09/01 04:09:16;;;;;;;6.93;3.00;;;;;;;17.60;100.00;97955.19;4134469;28;20649;-85
2023/09/01 04:11:19;;;;;;;5.07;3.80;;;;;;;17.62;100.00;97958.53;4115857;28;20675;-85
2023/09/01 04:13:22;;;;;;;4.60;2.83;;;;;;;17.63;100.00;97961.97;4104381;28;20666;-85
2023/09/01 04:15:25;;;;;;;3.67;3.17;;;;;;;17.65;100.00;97963.50;4121133;28;20662;-84
2023/09/01 04:17:30;;;;;;;3.57;2.97;;;;;;;17.66;100.00;97965.13;4111780;28;20640;-85
2023/09/01 04:19:34;;;;;;;3.53;2.87;;;;;;;17.68;100.00;97959.72;4126137;28;20632;-85
2023/09/01 04:21:37;;;;;;;5.80;3.13;;;;;;;17.71;100.00;97965.53;4114970;28;20620;-85
2023/09/01 04:23:40;;;;;;;4.73;3.10;;;;;;;17.72;100.00;97961.91;4128368;28;20677;-85
2023/09/01 04:25:46;;;;;;;4.70;3.10;;;;;;;17.73;100.00;97960.94;4119457;28;20642;-85
2023/09/01 04:27:51;;;;;;;4.80;3.13;;;;;;;17.74;100.00;97957.31;4136541;28;20623;-85
2023/09/01 04:29:55;;;;;;;4.07;2.90;;;;;;;17.75;100.00;97956.31;4116376;28;20634;-85
2023/09/01 04:32:13;;;;;;;6.07;3.10;;;;;;;17.75;100.00;97964.22;4127300;28;21512;-85
2023/09/01 04:34:18;;;;;;;3.47;2.67;;;;;;;17.74;100.00;97962.59;4112173;28;20624;-85
2023/09/01 04:36:21;;;;;;;3.50;3.07;;;;;;;17.75;100.00;97969.50;4121348;28;20628;-84
2023/09/01 04:38:35;;;;;;;3.60;2.73;;;;;;;17.76;100.00;97973.81;4121559;28;20686;-85
2023/09/01 04:40:38;;;;;;;4.50;3.10;;;;;;;17.77;100.00;97966.72;4123146;28;20642;-86
2023/09/01 04:42:43;;;;;;;5.47;3.30;;;;;;;17.78;100.00;97966.56;4112178;28;21240;-85
2023/09/01 04:44:46;;;;;;;5.20;3.10;;;;;;;17.79;100.00;97970.88;4124080;28;20658;-85
2023/09/01 04:46:49;;;;;;;3.73;2.77;;;;;;;17.80;100.00;97969.91;4121050;28;20672;-85
2023/09/01 04:48:53;;;;;;;5.63;2.50;;;;;;;17.80;100.00;97969.06;4121156;28;20730;-85
2023/09/01 04:50:57;;;;;;;4.13;3.20;;;;;;;17.80;100.00;97977.81;4121153;28;20662;-85
2023/09/01 04:53:00;;;;;;;4.70;2.80;;;;;;;17.81;100.00;97976.00;4121518;28;20626;-85
2023/09/01 04:55:04;;;;;;;3.80;2.90;;;;;;;17.80;100.00;97974.34;4126035;28;20641;-85
2023/09/01 04:57:07;;;;;;;7.70;2.87;;;;;;;17.80;100.00;97971.69;4101451;28;21078;-85
2023/09/01 04:59:13;;;;;;;3.90;2.77;;;;;;;17.81;100.00;97971.53;4124555;28;20670;-85
2023/09/01 05:01:17;;;;;;;3.33;2.93;;;;;;;17.83;100.00;97969.59;4125272;28;20666;-85
2023/09/01 05:03:20;;;;;;;4.00;2.70;;;;;;;17.85;100.00;97974.72;4102376;28;20658;-85
2023/09/01 05:05:23;;;;;;;3.57;2.90;;;;;;;17.86;100.00;97979.00;4110737;28;20717;-85
2023/09/01 05:07:26;;;;;;;3.80;2.80;;;;;;;17.87;100.00;97978.03;4125966;28;20887;-85
2023/09/01 05:09:29;;;;;;;3.80;2.70;;;;;;;17.88;100.00;97980.53;4118397;28;20640;-85
2023/09/01 05:11:34;;;;;;;3.80;2.60;;;;;;;17.92;100.00;97982.72;4112902;28;20636;-85
2023/09/01 05:13:38;;;;;;;5.00;2.97;;;;;;;17.94;100.00;97986.00;4123569;28;20643;-86
2023/09/01 05:15:42;;;;;;;4.00;3.03;;;;;;;17.98;100.00;97983.88;4127687;28;21124;-85
2023/09/01 05:17:46;;;;;;;4.27;2.80;;;;;;;18.02;100.00;97977.34;4132073;28;20636;-85
2023/09/01 05:19:49;;;;;;;4.13;2.80;;;;;;;18.05;100.00;97984.94;4118501;28;20725;-84
2023/09/01 05:21:52;;;;;;;4.83;2.57;;;;;;;18.09;100.00;97984.50;4119194;28;20635;-85
2023/09/01 05:23:55;;;;;;;4.23;2.53;;;;;;;18.12;100.00;97983.38;4121203;28;20672;-85
2023/09/01 05:25:59;;;;;;;4.73;2.67;;;;;;;18.15;100.00;97983.09;4115934;28;20661;-86
2023/09/01 05:28:03;;;;;;;5.53;2.23;;;;;;;18.17;100.00;97989.84;4118356;28;20670;-85
2023/09/01 05:30:06;;;;;;;6.97;2.93;;;;;;;18.19;100.00;97990.56;4119122;28;20668;-85
2023/09/01 05:32:11;;;;;;;4.73;2.80;;;;;;;18.17;100.00;97995.13;4104663;28;20641;-85
2023/09/01 05:34:14;;;;;;;6.63;3.47;;;;;;;18.16;100.00;97992.66;4121159;28;20731;-85
2023/09/01 05:36:17;;;;;;;6.17;3.37;;;;;;;18.14;100.00;97989.34;4121414;28;21004;-85
2023/09/01 05:38:20;;;;;;;5.63;3.67;;;;;;;18.15;100.00;97993.66;4106063;28;21027;-85
2023/09/01 05:40:23;;;;;;;6.90;3.27;;;;;;;18.21;100.00;97999.13;4111284;28;20684;-85
2023/09/01 05:42:28;;;;;;;2.80;2.30;;;;;;;18.22;100.00;97992.03;4109598;28;20686;-85
2023/09/01 05:44:33;;;;;;;2.37;2.00;;;;;;;18.25;100.00;97992.59;4123021;28;21242;-86
2023/09/01 05:46:36;;;;;;;4.50;3.20;;;;;;;18.28;100.00;97994.06;4109820;28;20648;-84
2023/09/01 05:48:41;;;;;;;4.23;2.63;;;;;;;18.32;100.00;97996.25;4132071;28;20627;-85
2023/09/01 05:50:44;;;;;;;3.67;2.70;;;;;;;18.36;100.00;97996.75;4122347;28;20687;-84
2023/09/01 05:52:50;;;;;;;5.93;2.47;;;;;;;18.40;100.00;97998.13;4110830;28;20660;-84
2023/09/01 05:54:53;;;;;;;3.00;2.20;;;;;;;18.42;100.00;98002.25;4119602;28;20628;-85
2023/09/01 05:56:57;;;;;;;4.20;2.07;;;;;;;18.44;100.00;98001.09;4120927;28;20634;-84
2023/09/01 05:59:00;;;;;;;4.17;2.20;;;;;;;18.47;100.00;98006.09;4128854;28;20634;-85
2023/09/01 06:01:04;;;;;;;3.30;1.97;;;;;;;18.51;100.00;98015.38;4120973;28;20666;-84
2023/09/01 06:03:07;;;;;;;3.90;2.03;;;;;;;18.52;100.00;98018.81;4123678;28;20698;-85
2023/09/01 06:05:12;;;;;;;2.37;2.17;;;;;;;18.53;100.00;98020.50;4118687;28;21324;-85
2023/09/01 06:07:14;;;;;;;3.70;2.13;;;;;;;18.54;100.00;98027.44;4117904;28;21057;-85
2023/09/01 06:09:17;;;;;;;2.23;1.70;;;;;;;18.55;100.00;98029.94;4122560;28;20742;-85
2023/09/01 06:11:21;;;;;;;7.57;2.30;;;;;;;18.54;100.00;98022.16;4114813;28;21236;-85
2023/09/01 06:13:24;;;;;;;3.60;1.80;;;;;;;18.56;100.00;98030.75;4130630;28;21219;-85
2023/09/01 06:15:27;;;;;;;3.23;1.83;;;;;;;18.55;100.00;98034.38;4117662;28;20653;-85
2023/09/01 06:17:29;;;;;;;2.63;2.00;;;;;;;18.56;100.00;98034.22;4122032;28;20760;-85
2023/09/01 06:19:48;;;;;;;2.93;2.17;;;;;;;18.58;100.00;98042.84;4124802;28;20628;-84
2023/09/01 06:21:53;;;;;;;2.87;2.00;;;;;;;18.58;100.00;98044.63;4124894;28;20691;-85
2023/09/01 06:23:55;;;;;;;2.70;1.73;;;;;;;18.57;100.00;98045.63;4102427;28;21232;-85
2023/09/01 06:25:58;;;;;;;3.03;2.10;;;;;;;18.56;100.00;98055.34;4126461;28;21204;-85
2023/09/01 06:28:01;;;;;;;2.67;1.90;;;;;;;18.53;100.00;98049.56;4111490;28;20664;-88
2023/09/01 06:30:06;;;;;;;3.23;1.83;;;;;;;18.51;100.00;98055.00;4128507;28;20624;-87
2023/09/01 06:32:11;;;;;;;2.53;1.80;;;;;;;18.47;100.00;98055.44;4133405;28;20627;-88
2023/09/01 06:34:16;;;;;;;3.33;2.33;;;;;;;18.50;100.00;98057.78;4123307;28;20628;-87
2023/09/01 06:36:19;;;;;;;3.50;3.00;;;;;;;18.54;100.00;98064.44;4108381;28;20621;-87
2023/09/01 06:38:23;;;;;;;2.73;2.07;;;;;;;18.54;100.00;98062.63;4106480;28;20655;-87
2023/09/01 06:40:27;;;;;;;3.30;2.33;;;;;;;18.53;100.00;98060.13;4120677;28;21205;-87
2023/09/01 06:42:29;;;;;;;5.33;2.23;;;;;;;18.51;100.00;98065.56;4103741;28;21606;-87
2023/09/01 06:44:36;;;;;;;8.30;2.10;;;;;;;18.49;100.00;98064.03;4114945;28;20625;-89
2023/09/01 06:46:40;;;;;;;2.40;2.10;;;;;;;18.49;100.00;98061.41;4116536;28;20656;-88
2023/09/01 06:48:43;;;;;;;2.80;1.90;;;;;;;18.49;100.00;98078.09;4116929;28;20658;-83
2023/09/01 06:50:46;;;;;;;4.20;2.37;;;;;;;18.46;100.00;98067.00;4110030;28;20637;-84
2023/09/01 06:52:50;;;;;;;6.57;2.80;;;;;;;18.42;100.00;98071.75;4106335;28;20636;-85
2023/09/01 06:54:55;;;;;;;5.33;2.70;;;;;;;18.38;100.00;98076.69;4119111;28;21245;-85
2023/09/01 06:56:58;;;;;;;3.73;2.43;;;;;;;18.37;100.00;98078.47;4132661;28;20730;-84
2023/09/01 06:59:02;;;;;;;4.30;2.43;;;;;;;18.37;100.00;98075.84;4097926;28;20648;-85
2023/09/01 07:01:08;;;;;;;3.00;2.40;;;;;;;18.38;100.00;98077.50;4132359;28;20639;-84
2023/09/01 07:03:12;;;;;;;4.30;2.40;;;;;;;18.37;100.00;98075.00;4120976;28;20645;-87
2023/09/01 07:05:16;;;;;;;3.80;2.30;;;;;;;18.38;100.00;98080.16;4116469;28;20646;-91
2023/09/01 07:07:19;;;;;;;5.23;2.40;;;;;;;18.37;100.00;98083.75;4106014;28;20643;-91
2023/09/01 07:09:22;;;;;;;5.10;2.27;;;;;;;18.38;100.00;98082.78;4116787;28;20629;-89
2023/09/01 07:11:27;;;;;;;5.30;2.40;;;;;;;18.38;100.00;98082.78;4118184;28;20667;-87
2023/09/01 07:13:30;;;;;;;3.00;2.07;;;;;;;18.39;100.00;98087.09;4127246;28;20633;-87
2023/09/01 07:15:33;;;;;;;3.07;2.17;;;;;;;18.41;100.00;98086.94;4110602;28;20626;-88
2023/09/01 07:17:37;;;;;;;2.80;2.33;;;;;;;18.44;100.00;98087.47;4122699;28;20647;-88
2023/09/01 07:19:43;;;;;;;4.00;2.40;;;;;;;18.45;100.00;98079.38;4131344;28;21261;-96
2023/09/01 07:21:46;;;;;;;2.77;2.03;;;;;;;18.50;100.00;98079.75;4122776;28;20637;-92
2023/09/01 07:23:53;;;;;;;4.10;2.27;;;;;;;18.49;100.00;98079.91;4123759;28;20612;-95
2023/09/01 07:26:00;;;;;;;4.50;2.13;;;;;;;18.51;100.00;98080.59;4105654;28;20758;-93
2023/09/01 07:28:05;;;;;;;2.33;1.90;;;;;;;18.53;100.00;98079.44;4108835;28;20632;-94
2023/09/01 07:30:13;;;;;;;2.73;1.70;;;;;;;18.58;100.00;98086.91;4121238;28;20714;-89
2023/09/01 07:32:17;;;;;;;3.20;2.10;;;;;;;18.60;100.00;98084.97;4127827;28;20647;-92
2023/09/01 07:34:25;;;;;;;2.90;2.33;;;;;;;18.63;100.00;98090.75;4112881;28;20631;-96
2023/09/01 07:36:29;;;;;;;2.90;2.17;;;;;;;18.69;100.00;98094.59;4113275;28;20644;-91
2023/09/01 07:38:32;;;;;;;5.30;2.10;;;;;;;18.73;100.00;98095.94;4122869;28;20671;-90
2023/09/01 07:40:39;;;;;;;2.30;1.60;;;;;;;18.72;100.00;98089.84;4110528;28;20633;-95
2023/09/01 07:42:43;;;;;;;3.67;2.00;;;;;;;18.71;100.00;98088.16;4108519;28;20648;-94
2023/09/01 07:44:48;;;;;;;2.60;1.90;;;;;;;18.71;100.00;98098.72;4114990;28;20739;-94
2023/09/01 07:46:52;;;;;;;3.20;2.00;;;;;;;18.72;100.00;98081.91;4123053;28;20651;-94
2023/09/01 07:48:56;;;;;;;2.90;2.17;;;;;;;18.75;100.00;98089.53;4122877;28;20631;-94
2023/09/01 07:50:59;;;;;;;2.90;1.77;;;;;;;18.80;100.00;98087.22;4120899;28;20625;-90
2023/09/01 07:53:03;;;;;;;3.80;1.90;;;;;;;18.77;100.00;98095.47;4121409;28;20651;-92
2023/09/01 07:55:09;;;;;;;3.57;2.30;;;;;;;18.75;100.00;98092.16;4123204;28;20647;-92
2023/09/01 07:57:12;;;;;;;4.50;2.00;;;;;;;18.76;100.00;98095.63;4121604;28;21063;-93
2023/09/01 07:59:15;;;;;;;2.43;1.83;;;;;;;18.74;100.00;98093.13;4119873;28;20631;-92
2023/09/01 08:01:19;;;;;;;2.83;2.03;;;;;;;18.74;100.00;98093.13;4108357;28;20629;-96
2023/09/01 08:03:23;;;;;;;4.73;2.00;;;;;;;18.75;100.00;98100.09;4123400;28;20653;-93
2023/09/01 08:05:27;;;;;;;2.77;1.97;;;;;;;18.80;100.00;98103.09;4125422;28;20664;-94
2023/09/01 08:07:30;;;;;;;3.80;1.80;;;;;;;18.84;100.00;98106.25;4117236;28;20791;-89
2023/09/01 08:09:33;;;;;;;2.57;1.73;;;;;;;18.86;100.00;98107.75;4102502;28;20753;-89
2023/09/01 08:11:36;;;;;;;2.47;1.90;;;;;;;18.91;100.00;98110.75;4103895;28;20635;-89
2023/09/01 08:13:39;;;;;;;2.43;1.57;;;;;;;18.98;100.00;98117.91;4114610;28;21006;-89
2023/09/01 08:15:42;;;;;;;2.70;1.73;;;;;;;19.09;100.00;98119.50;4104306;28;20982;-88
2023/09/01 08:17:49;;;;;;;2.77;1.50;;;;;;;19.17;100.00;98127.47;4105496;28;20716;-89
2023/09/01 08:19:53;;;;;;;3.00;1.50;;;;;;;19.25;100.00;98136.31;4133882;28;20671;-88
2023/09/01 08:21:57;;;;;;;1.93;1.30;;;;;;;19.32;100.00;98131.19;4115427;28;20678;-89
2023/09/01 08:24:00;;;;;;;2.07;1.70;;;;;;;19.37;100.00;98129.75;4120339;28;20741;-92
2023/09/01 08:26:05;;;;;;;2.00;1.40;;;;;;;19.47;100.00;98128.66;4121994;28;20632;-88
2023/09/01 08:28:09;;;;;;;1.60;1.00;;;;;;;19.55;100.00;98133.97;4118268;28;20633;-95
2023/09/01 08:30:15;;;;;;;2.27;1.40;;;;;;;19.59;100.00;98130.03;4112589;28;20732;-96
2023/09/01 08:32:19;;;;;;;2.10;1.40;;;;;;;19.63;100.00;98131.34;4116618;28;20728;-95
2023/09/01 08:34:28;;;;;;;2.00;1.20;;;;;;;19.63;100.00;98134.00;4118005;28;20633;-94
2023/09/01 08:36:33;;;;;;;2.27;1.43;;;;;;;19.68;100.00;98136.16;4104375;28;20762;-93
2023/09/01 08:38:36;;;;;;;2.60;1.57;;;;;;;19.76;100.00;98131.75;4118338;28;20645;-90
2023/09/01 08:40:40;;;;;;;3.00;1.30;;;;;;;19.86;100.00;98132.47;4116480;28;20689;-90
2023/09/01 08:42:46;;;;;;;1.93;1.40;;;;;;;19.90;100.00;98141.75;4104993;28;20644;-89
2023/09/01 08:44:50;;;;;;;2.83;1.47;;;;;;;19.96;100.00;98143.75;4118738;28;20664;-89
2023/09/01 08:46:55;;;;;;;1.90;1.10;;;;;;;20.02;100.00;98151.06;4118174;28;20645;-89
2023/09/01 08:48:58;;;;;;;5.10;1.60;;;;;;;20.11;100.00;98140.31;4106472;28;21182;-90
2023/09/01 08:51:05;;;;;;;2.37;1.27;;;;;;;20.16;100.00;98151.28;4120142;28;21244;-91
2023/09/01 08:53:08;;;;;;;2.20;1.20;;;;;;;20.27;100.00;98152.78;4119660;28;20673;-90
2023/09/01 08:55:10;;;;;;;1.87;1.30;;;;;;;20.41;100.00;98159.06;4111264;28;20673;-90
2023/09/01 08:57:13;;;;;;;1.87;1.23;;;;;;;20.51;100.00;98153.66;4103121;28;21036;-90
2023/09/01 08:59:17;;;;;;;2.00;1.27;;;;;;;20.59;100.00;98149.16;4102413;28;20635;-89
2023/09/01 09:01:20;;;;;;;2.13;1.10;;;;;;;20.65;100.00;98147.69;4114545;28;20665;-88
2023/09/01 09:03:23;;;;;;;2.70;1.10;;;;;;;20.70;100.00;98154.16;4120007;28;20655;-89
2023/09/01 09:05:28;;;;;;;2.27;1.40;;;;;;;20.85;100.00;98149.84;4125333;28;20673;-92
2023/09/01 09:07:33;;;;;;;2.20;1.80;;;;;;;21.02;100.00;98148.88;4128462;28;20710;-93
2023/09/01 09:09:48;;;;;;;3.33;1.40;;;;;;;21.24;100.00;98148.16;4107498;28;21249;-93
2023/09/01 09:11:56;;;;;;;2.00;1.20;;;;;;;21.34;100.00;98133.69;4106589;28;20668;-92
2023/09/01 09:13:59;;;;;;;2.27;1.30;;;;;;;21.33;100.00;98135.53;4125688;28;20673;-92
2023/09/01 09:16:14;;;;;;;1.63;1.23;;;;;;;21.42;100.00;98131.00;4112553;28;20685;-90
2023/09/01 09:18:28;;;;;;;2.03;1.20;;;;;;;21.50;100.00;98126.56;4120432;28;20626;-89
2023/09/01 09:20:38;;;;;;;2.10;1.17;;;;;;;21.59;100.00;98132.63;4121490;28;20635;-91
2023/09/01 09:22:54;;;;;;;2.00;1.30;;;;;;;21.66;100.00;98125.66;4119921;28;20644;-89
2023/09/01 09:24:57;;;;;;;1.90;1.23;;;;;;;21.76;100.00;98127.91;4116419;28;20639;-90
2023/09/01 09:27:00;;;;;;;1.93;1.40;;;;;;;21.85;100.00;98126.88;4123871;28;20706;-93
2023/09/01 09:29:06;;;;;;;2.37;1.20;;;;;;;21.87;100.00;98129.38;4126399;28;21103;-92
2023/09/01 09:31:09;;;;;;;3.13;1.23;;;;;;;21.90;100.00;98131.69;4124303;28;21383;-89
2023/09/01 09:33:12;;;;;;;3.40;1.40;;;;;;;22.05;100.00;98132.59;4120102;28;20625;-94
2023/09/01 09:35:16;;;;;;;2.17;1.17;;;;;;;22.12;100.00;98126.41;4105263;28;21339;-87
2023/09/01 09:37:19;;;;;;;2.97;1.40;;;;;;;22.13;100.00;98124.56;4110391;28;21311;-90